Terminal Aerodrome Forecast
Issued by NWS

Home | Current Version | Previous Version | Text Only | Print | Product List | Glossary On
Versions: 1 2 3 4 5 6 7 8 9 10 11 12 13 14 15 16 17 18 19 20 21 22 23 24 25 26 27 28 29
000
FTUS42 KTAE 161700
TAFABY
TAF
KABY 161723Z 1618/1718 03005KT P6SM VCTS BKN025CB
      TEMPO 1621/1624 3SM TSRA OVC025CB
     FM170000 00000KT P6SM SCT100 BKN250
     FM171100 01002KT 4SM BR BKN250
     FM171400 36004KT P6SM SCT250=

USA.gov is the U.S. government's official web portal to all federal, state and local government web resources and services.